Time;durP1;ratioP1;P1;durP2;ratioP2;P2;SDS_P1;SDS_P2;PMS_P1;PMS_P2;Temp;Humidity;BMP_temperature;BMP_pressure;BME280_temperature;BME280_humidity;BME280_pressure;Samples;Min_cycle;Max_cycle;Signal;HPM_P1;HPM_P2
2023/12/07 00:00:10;;;;;;;41.25;30.67;;;;;;;16.10;100.00;101009.78;143725;608;47004;-83
2023/12/07 00:02:37;;;;;;;44.35;35.33;;;;;;;16.10;100.00;101012.50;143723;586;47006;-87
2023/12/07 00:05:05;;;;;;;43.15;34.90;;;;;;;16.01;100.00;101003.88;143732;590;46006;-85
2023/12/07 00:07:32;;;;;;;42.75;32.83;;;;;;;15.99;100.00;101007.88;143730;585;46008;-85
2023/12/07 00:09:58;;;;;;;34.92;28.50;;;;;;;15.94;100.00;101007.72;143726;569;47013;-85
2023/12/07 00:12:25;;;;;;;41.15;28.60;;;;;;;15.91;100.00;101009.81;143725;645;46006;-85
2023/12/07 00:14:52;;;;;;;39.55;30.77;;;;;;;15.92;100.00;101007.94;143732;649;46002;-86
2023/12/07 00:17:18;;;;;;;41.08;30.05;;;;;;;15.93;100.00;101014.19;143727;622;46010;-83
2023/12/07 00:19:45;;;;;;;31.90;24.48;;;;;;;15.80;100.00;101018.69;143727;619;46004;-85
2023/12/07 00:22:12;;;;;;;30.30;22.25;;;;;;;15.75;100.00;101018.53;143727;598;46002;-85
2023/12/07 00:24:38;;;;;;;31.40;22.10;;;;;;;15.80;100.00;101015.12;143731;578;46006;-84
2023/12/07 00:27:06;;;;;;;32.25;22.98;;;;;;;15.84;100.00;101016.34;143726;609;47009;-84
2023/12/07 00:29:32;;;;;;;27.48;21.70;;;;;;;15.86;100.00;101022.41;143731;567;45928;-85
2023/12/07 00:31:59;;;;;;;26.00;17.83;;;;;;;15.89;100.00;101022.75;143728;576;46006;-85
2023/12/07 00:34:26;;;;;;;20.83;15.05;;;;;;;15.90;100.00;101024.41;143732;640;46000;-85
2023/12/07 00:36:53;;;;;;;21.10;16.02;;;;;;;15.94;100.00;101026.69;143721;621;51002;-85
2023/12/07 00:39:21;;;;;;;20.05;15.00;;;;;;;15.91;100.00;101027.97;143728;639;47002;-85
2023/12/07 00:41:48;;;;;;;23.85;15.85;;;;;;;15.95;100.00;101021.03;143729;619;45918;-85
2023/12/07 00:44:17;;;;;;;25.10;17.50;;;;;;;15.83;100.00;101018.22;143730;656;47002;-86
2023/12/07 00:46:44;;;;;;;23.90;19.05;;;;;;;15.83;100.00;101028.22;143727;567;47008;-86
2023/12/07 00:49:11;;;;;;;28.27;19.10;;;;;;;15.84;100.00;101027.16;143730;646;45927;-84
2023/12/07 00:51:38;;;;;;;24.45;19.35;;;;;;;15.85;100.00;101027.00;143726;577;47006;-86
2023/12/07 00:54:04;;;;;;;25.27;19.67;;;;;;;15.89;100.00;101020.03;143729;602;46004;-85
2023/12/07 00:56:31;;;;;;;26.90;19.60;;;;;;;15.94;100.00;101013.97;143724;572;47008;-85
2023/12/07 00:58:58;;;;;;;27.73;19.83;;;;;;;15.90;100.00;101018.19;143730;600;46002;-86
2023/12/07 01:01:25;;;;;;;27.27;20.90;;;;;;;15.90;100.00;101015.47;143723;604;47006;-84
2023/12/07 01:03:51;;;;;;;26.90;19.95;;;;;;;15.93;100.00;101017.72;143727;592;49000;-84
2023/12/07 01:06:20;;;;;;;25.52;21.08;;;;;;;15.99;100.00;101022.22;143729;586;46009;-85
2023/12/07 01:08:47;;;;;;;28.08;19.52;;;;;;;16.03;100.00;101020.72;143726;649;46010;-84
2023/12/07 01:11:13;;;;;;;29.40;20.92;;;;;;;16.00;100.00;101026.59;143729;577;46002;-83
2023/12/07 01:13:40;;;;;;;26.77;20.08;;;;;;;15.93;100.00;101025.84;143728;584;48002;-85
2023/12/07 01:16:06;;;;;;;30.35;19.42;;;;;;;15.91;100.00;101025.25;143728;594;46008;-86
2023/12/07 01:18:33;;;;;;;26.00;19.67;;;;;;;15.89;100.00;101028.19;143731;592;45927;-85
2023/12/07 01:21:00;;;;;;;24.25;20.33;;;;;;;15.90;100.00;101018.19;143728;585;46007;-85
2023/12/07 01:23:27;;;;;;;30.10;20.23;;;;;;;15.85;100.00;101027.00;143730;573;46008;-85
2023/12/07 01:25:54;;;;;;;21.55;18.02;;;;;;;15.86;100.00;101022.41;143720;575;48006;-86
2023/12/07 01:28:21;;;;;;;27.33;19.25;;;;;;;15.86;100.00;101023.22;143719;603;49002;-84
2023/12/07 01:30:47;;;;;;;27.58;20.52;;;;;;;15.86;100.00;101015.09;143731;567;45917;-84
2023/12/07 01:33:15;;;;;;;27.80;22.98;;;;;;;15.77;100.00;101027.25;143724;588;48000;-85
2023/12/07 01:35:42;;;;;;;32.10;23.27;;;;;;;15.74;100.00;101019.56;143729;581;46008;-84
2023/12/07 01:38:09;;;;;;;28.85;23.20;;;;;;;15.74;100.00;101012.28;143710;590;57002;-85
2023/12/07 01:40:36;;;;;;;33.80;23.87;;;;;;;15.77;100.00;101014.56;143722;615;47002;-85
2023/12/07 01:43:03;;;;;;;27.40;20.83;;;;;;;15.74;100.00;101019.56;143723;626;48000;-84
2023/12/07 01:45:29;;;;;;;24.92;18.10;;;;;;;15.70;100.00;101005.66;143728;586;46577;-84
2023/12/07 01:47:58;;;;;;;27.70;17.58;;;;;;;15.66;100.00;101019.87;143726;654;46008;-85
2023/12/07 01:50:26;;;;;;;26.23;16.67;;;;;;;15.66;100.00;101018.00;143718;582;48004;-85
2023/12/07 01:52:59;;;;;;;22.17;15.73;;;;;;;15.72;100.00;101017.09;143729;568;47000;-85
2023/12/07 01:55:29;;;;;;;19.62;15.25;;;;;;;15.72;100.00;101010.84;143719;574;48002;-84
2023/12/07 01:57:56;;;;;;;22.42;16.25;;;;;;;15.66;100.00;101012.59;143727;583;46004;-85
2023/12/07 04:00:27;;;;;;;12.95;9.75;;;;;;;15.26;100.00;100994.88;143722;604;48006;-84
2023/12/07 04:02:54;;;;;;;17.40;13.18;;;;;;;15.25;100.00;100987.81;143727;585;46007;-84
2023/12/07 04:05:21;;;;;;;12.30;9.00;;;;;;;15.19;100.00;101004.13;143721;632;47011;-85
2023/12/07 04:07:48;;;;;;;21.77;8.50;;;;;;;15.18;100.00;100989.75;143728;567;46004;-84
2023/12/07 04:10:15;;;;;;;11.50;7.28;;;;;;;15.20;100.00;100989.53;143719;599;47006;-85
2023/12/07 04:12:41;;;;;;;10.50;6.93;;;;;;;15.14;100.00;100985.84;143732;567;45008;-85
2023/12/07 04:15:09;;;;;;;10.25;7.20;;;;;;;15.17;100.00;100990.81;143719;637;48004;-85
2023/12/07 04:17:35;;;;;;;10.85;7.12;;;;;;;15.18;100.00;100994.34;143722;608;46008;-84
2023/12/07 04:20:03;;;;;;;11.43;7.00;;;;;;;15.09;100.00;101008.12;143727;618;46007;-83
2023/12/07 04:22:29;;;;;;;11.95;8.27;;;;;;;15.05;100.00;101003.41;143726;569;47000;-83
2023/12/07 04:24:56;;;;;;;10.05;7.10;;;;;;;15.11;100.00;101005.22;143725;578;47010;-86
2023/12/07 04:27:27;;;;;;;12.32;7.40;;;;;;;15.18;100.00;101000.56;143725;577;47004;-86
2023/12/07 04:29:59;;;;;;;12.80;6.53;;;;;;;15.19;100.00;101006.81;143708;640;57000;-85
2023/12/07 04:32:28;;;;;;;10.93;5.72;;;;;;;15.21;100.00;101004.72;143732;600;45008;-86
2023/12/07 04:34:56;;;;;;;11.63;6.62;;;;;;;15.32;100.00;101014.81;143725;590;46920;-85
2023/12/07 04:37:23;;;;;;;13.70;7.95;;;;;;;15.41;100.00;101004.50;143723;575;47004;-85
2023/12/07 04:39:50;;;;;;;10.48;7.72;;;;;;;15.41;100.00;101005.34;143726;605;46006;-86
2023/12/07 04:42:17;;;;;;;17.60;11.38;;;;;;;15.44;100.00;101006.78;143729;574;47000;-85
2023/12/07 04:44:44;;;;;;;12.48;9.30;;;;;;;15.33;100.00;101002.13;143722;606;47010;-86
2023/12/07 04:47:11;;;;;;;11.02;8.48;;;;;;;15.31;100.00;101011.28;143726;591;47002;-85
2023/12/07 04:49:38;;;;;;;14.15;8.35;;;;;;;15.35;100.00;101010.84;143724;576;46004;-84
2023/12/07 04:52:05;;;;;;;20.10;13.62;;;;;;;15.37;100.00;101006.84;143727;632;46017;-85
2023/12/07 04:54:32;;;;;;;19.60;9.60;;;;;;;15.40;100.00;101010.97;143725;634;47019;-85
2023/12/07 04:57:00;;;;;;;13.45;8.23;;;;;;;15.36;100.00;101013.31;143727;576;46004;-85
2023/12/07 04:59:27;;;;;;;15.48;8.90;;;;;;;15.30;100.00;101015.03;143722;567;47002;-85
2023/12/07 05:01:54;;;;;;;10.77;8.05;;;;;;;15.35;100.00;101016.25;143730;610;46004;-86
2023/12/07 05:04:22;;;;;;;11.73;7.28;;;;;;;15.31;100.00;101016.69;143729;567;45920;-84
2023/12/07 05:06:49;;;;;;;13.88;7.28;;;;;;;15.33;100.00;101023.78;143723;577;47004;-84
2023/12/07 05:09:16;;;;;;;12.02;7.72;;;;;;;15.31;100.00;101015.84;143729;649;46000;-86
2023/12/07 05:11:44;;;;;;;9.95;7.32;;;;;;;15.34;100.00;101017.31;143731;606;45008;-85
2023/12/07 05:14:12;;;;;;;11.50;6.78;;;;;;;15.36;100.00;101016.03;143723;574;48008;-85
2023/12/07 05:16:39;;;;;;;17.55;8.60;;;;;;;15.25;100.00;101022.19;143729;670;45928;-86
2023/12/07 05:19:05;;;;;;;10.73;7.00;;;;;;;15.21;100.00;101027.19;143727;591;46004;-83
2023/12/07 05:21:32;;;;;;;7.40;5.65;;;;;;;15.24;100.00;101023.22;143729;640;46006;-85
2023/12/07 05:23:59;;;;;;;9.07;6.18;;;;;;;15.29;100.00;101029.63;143720;594;47010;-85
2023/12/07 05:26:26;;;;;;;11.65;7.53;;;;;;;15.30;100.00;101031.28;143726;569;46010;-85
2023/12/07 05:28:53;;;;;;;12.37;5.82;;;;;;;15.27;100.00;101037.13;143718;589;47006;-87
2023/12/07 05:31:20;;;;;;;10.15;6.57;;;;;;;15.21;100.00;101038.00;143728;590;46008;-84
2023/12/07 05:33:47;;;;;;;12.82;10.27;;;;;;;15.12;100.00;101040.16;143724;598;47010;-83
2023/12/07 05:36:14;;;;;;;25.23;13.95;;;;;;;15.07;100.00;101045.44;143722;586;47004;-85
2023/12/07 05:38:41;;;;;;;22.35;12.13;;;;;;;15.06;100.00;101041.06;143726;617;47006;-83
2023/12/07 05:41:09;;;;;;;24.75;14.32;;;;;;;15.12;100.00;101040.16;143730;615;46002;-85
2023/12/07 05:43:36;;;;;;;26.33;13.52;;;;;;;15.19;100.00;101047.41;143727;600;46010;-84
2023/12/07 05:46:03;;;;;;;18.85;10.68;;;;;;;15.17;100.00;101053.06;143726;621;47004;-81
2023/12/07 05:48:30;;;;;;;20.40;11.38;;;;;;;15.17;100.00;101053.06;143726;594;47006;-82
2023/12/07 05:50:57;;;;;;;31.25;12.60;;;;;;;15.23;100.00;101056.75;143730;606;46002;-83
2023/12/07 05:53:24;;;;;;;23.92;13.30;;;;;;;15.20;100.00;101054.47;143725;600;47008;-83
2023/12/07 05:55:51;;;;;;;20.55;12.85;;;;;;;15.11;100.00;101052.03;143719;573;47004;-83
2023/12/07 05:58:18;;;;;;;21.90;12.52;;;;;;;15.16;100.00;101044.09;143726;584;46004;-83
2023/12/07 06:00:46;;;;;;;23.20;11.48;;;;;;;15.16;100.00;101052.22;143732;599;45008;-84
2023/12/07 06:03:16;;;;;;;22.10;11.40;;;;;;;15.20;100.00;101049.06;143721;575;47009;-82
2023/12/07 06:05:44;;;;;;;25.10;11.68;;;;;;;15.15;100.00;101050.53;143720;617;48927;-82
2023/12/07 06:08:11;;;;;;;18.67;10.25;;;;;;;15.15;100.00;101055.97;143727;589;45917;-82
2023/12/07 06:10:39;;;;;;;20.33;11.10;;;;;;;15.18;100.00;101065.50;143727;600;47002;-83
2023/12/07 06:13:05;;;;;;;23.62;11.23;;;;;;;15.20;100.00;101066.09;143727;583;46022;-83
2023/12/07 06:15:33;;;;;;;23.42;12.20;;;;;;;15.20;100.00;101058.00;143724;599;47004;-82
2023/12/07 06:18:00;;;;;;;22.08;12.50;;;;;;;15.21;100.00;101056.94;143721;619;47007;-83
2023/12/07 06:20:27;;;;;;;33.38;12.70;;;;;;;15.25;100.00;101063.56;143728;594;47006;-83
2023/12/07 06:22:53;;;;;;;38.85;14.45;;;;;;;15.25;100.00;101062.75;143729;613;45919;-81
2023/12/07 06:25:20;;;;;;;26.80;13.25;;;;;;;15.24;100.00;101056.50;143726;660;47004;-82
2023/12/07 06:27:47;;;;;;;28.70;13.52;;;;;;;15.31;100.00;101061.84;143726;628;47006;-82
2023/12/07 06:30:14;;;;;;;29.45;14.43;;;;;;;15.29;100.00;101061.25;143729;574;46006;-84
2023/12/07 06:32:40;;;;;;;20.02;12.10;;;;;;;15.24;100.00;101059.22;143729;585;45919;-82
2023/12/07 06:35:07;;;;;;;18.80;10.95;;;;;;;15.28;100.00;101071.25;143721;578;48002;-82
2023/12/07 06:37:42;;;;;;;21.92;10.60;;;;;;;15.30;100.00;101071.88;143731;566;45917;-81
2023/12/07 06:40:12;;;;;;;;;;;;;;;15.34;100.00;101074.13;143731;985;49002;-84
2023/12/07 06:42:39;;;;;;;28.30;16.15;;;;;;;15.41;100.00;101072.19;143732;596;46010;-83
2023/12/07 06:45:10;;;;;;;25.70;15.45;;;;;;;15.42;100.00;101071.97;143727;582;46006;-83
2023/12/07 06:47:38;;;;;;;27.85;16.83;;;;;;;15.42;100.00;101080.09;143724;586;46018;-83
2023/12/07 06:50:15;;;;;;;37.67;20.75;;;;;;;15.46;100.00;101081.28;143731;651;45012;-82
2023/12/07 06:52:42;;;;;;;29.55;17.62;;;;;;;15.59;100.00;101080.34;143723;611;47010;-82
2023/12/07 06:55:10;;;;;;;27.02;18.55;;;;;;;15.67;100.00;101070.28;143727;574;46004;-83
2023/12/07 06:57:37;;;;;;;23.62;15.80;;;;;;;15.60;100.00;101081.19;143721;610;47020;-82
2023/12/07 07:00:10;;;;;;;25.75;16.50;;;;;;;15.57;100.00;101071.59;143721;617;47008;-82
2023/12/07 07:02:49;;;;;;;26.60;15.90;;;;;;;15.55;100.00;101073.72;143722;603;47921;-83
2023/12/07 07:05:19;;;;;;;25.98;15.02;;;;;;;15.64;100.00;101076.97;143729;610;45930;-82
2023/12/07 07:07:46;;;;;;;25.30;15.25;;;;;;;15.77;100.00;101081.41;143725;621;46008;-82
2023/12/07 07:10:13;;;;;;;20.45;16.17;;;;;;;15.88;100.00;101082.59;143729;600;46019;-83
2023/12/07 07:12:40;;;;;;;27.40;15.63;;;;;;;15.94;100.00;101086.28;143721;624;47012;-83
2023/12/07 07:15:08;;;;;;;25.77;14.80;;;;;;;16.14;100.00;101088.78;143728;596;46004;-84
2023/12/07 07:17:34;;;;;;;21.33;14.48;;;;;;;16.30;100.00;101082.72;143722;584;50009;-83
2023/12/07 07:20:01;;;;;;;28.52;18.55;;;;;;;16.39;100.00;101082.41;143724;644;49002;-82
2023/12/07 07:22:28;;;;;;;27.40;17.08;;;;;;;16.49;100.00;101090.84;143727;588;46006;-83
2023/12/07 07:24:55;;;;;;;26.10;14.95;;;;;;;16.52;100.00;101090.34;143725;568;48006;-82
2023/12/07 07:27:21;;;;;;;22.98;13.85;;;;;;;16.57;100.00;101092.41;143725;572;47008;-82
2023/12/07 07:29:48;;;;;;;18.55;11.10;;;;;;;16.53;100.00;101094.72;143725;626;48002;-81
2023/12/07 07:32:16;;;;;;;18.42;10.85;;;;;;;16.49;100.00;101085.41;143723;567;48012;-82
2023/12/07 07:34:43;;;;;;;20.37;11.70;;;;;;;16.56;100.00;101094.25;143725;574;48004;-83
2023/12/07 07:37:10;;;;;;;36.70;25.42;;;;;;;16.63;100.00;101086.03;143725;653;47008;-82
2023/12/07 07:39:36;;;;;;;37.80;26.10;;;;;;;16.70;100.00;101088.66;143726;591;46009;-82
2023/12/07 07:42:05;;;;;;;27.08;16.55;;;;;;;16.77;100.00;101086.69;143728;586;46010;-82
2023/12/07 07:44:32;;;;;;;17.80;10.98;;;;;;;16.81;100.00;101080.56;143729;593;45929;-82
2023/12/07 07:46:59;;;;;;;12.10;8.15;;;;;;;16.88;100.00;101091.31;143721;586;47008;-82
2023/12/07 07:49:26;;;;;;;15.60;10.20;;;;;;;17.03;100.00;101084.66;143734;621;45012;-82
2023/12/07 07:51:53;;;;;;;21.75;11.38;;;;;;;17.19;100.00;101086.72;143719;585;47012;-84
2023/12/07 07:54:20;;;;;;;17.58;9.25;;;;;;;17.27;100.00;101080.09;143731;569;45929;-82
2023/12/07 07:56:47;;;;;;;21.12;10.80;;;;;;;17.46;100.00;101091.69;143724;572;48008;-81
2023/12/07 07:59:15;;;;;;;14.82;8.90;;;;;;;17.51;100.00;101090.97;143731;623;46000;-83
2023/12/07 08:01:42;;;;;;;20.40;11.12;;;;;;;17.60;100.00;101086.84;143725;593;47009;-82
2023/12/07 08:04:10;;;;;;;24.98;14.23;;;;;;;17.68;100.00;101097.34;143727;583;47002;-85
2023/12/07 08:06:37;;;;;;;18.70;13.95;;;;;;;17.75;100.00;101093.69;143725;573;47006;-84
2023/12/07 08:09:04;;;;;;;20.50;13.80;;;;;;;17.90;100.00;101098.63;143732;567;47004;-81
2023/12/07 08:11:32;;;;;;;21.87;13.27;;;;;;;17.88;100.00;101102.41;143729;593;46008;-82
2023/12/07 08:13:59;;;;;;;22.95;14.43;;;;;;;17.83;100.00;101102.28;143725;577;47002;-82
2023/12/07 08:16:27;;;;;;;19.77;12.40;;;;;;;17.88;100.00;101101.56;143728;594;45919;-82
2023/12/07 08:18:54;;;;;;;25.83;12.48;;;;;;;18.12;100.00;101098.84;143724;569;48000;-83
2023/12/07 08:21:22;;;;;;;17.10;10.15;;;;;;;18.39;100.00;101106.44;143730;585;45922;-82
2023/12/07 08:23:49;;;;;;;15.95;9.48;;;;;;;18.40;100.00;101105.38;143731;577;45930;-81
2023/12/07 08:26:15;;;;;;;17.12;11.63;;;;;;;18.31;100.00;101108.50;143730;579;45921;-83
2023/12/07 08:28:42;;;;;;;20.23;10.82;;;;;;;18.48;100.00;101105.03;143713;593;54002;-83
2023/12/07 08:31:12;;;;;;;15.45;11.15;;;;;;;18.74;100.00;101111.78;143730;613;45923;-83
2023/12/07 08:33:39;;;;;;;25.85;13.77;;;;;;;19.06;100.00;101110.47;143729;567;46002;-81
2023/12/07 08:36:06;;;;;;;26.67;13.77;;;;;;;19.19;100.00;101106.56;143721;577;47006;-84
2023/12/07 08:38:33;;;;;;;34.20;16.75;;;;;;;19.25;100.00;101105.59;143725;649;48004;-81
2023/12/07 08:41:00;;;;;;;28.05;16.25;;;;;;;19.34;100.00;101114.97;143726;574;47011;-81
2023/12/07 08:43:30;;;;;;;30.75;15.27;;;;;;;19.23;100.00;101105.84;143724;567;48013;-83
2023/12/07 08:45:56;;;;;;;18.30;9.77;;;;;;;19.32;100.00;101105.41;143730;738;45915;-82
2023/12/07 08:48:23;;;;;;;19.20;11.50;;;;;;;19.55;100.00;101107.13;143731;573;46004;-82
2023/12/07 08:50:51;;;;;;;19.35;11.60;;;;;;;19.75;100.00;101111.25;143728;661;45923;-81
2023/12/07 08:53:18;;;;;;;16.83;10.63;;;;;;;19.90;100.00;101103.31;143728;590;46005;-82
2023/12/07 08:55:45;;;;;;;19.12;11.80;;;;;;;20.15;100.00;101097.34;143729;599;46008;-82
2023/12/07 08:58:12;;;;;;;19.73;12.43;;;;;;;20.30;100.00;101096.72;143733;595;45012;-82
2023/12/07 09:00:38;;;;;;;19.48;13.30;;;;;;;21.81;100.00;101093.41;143726;607;48004;-81
2023/12/07 09:03:05;;;;;;;22.35;12.25;;;;;;;24.76;94.65;101083.12;143726;572;48010;-82
2023/12/07 09:05:32;;;;;;;17.33;11.48;;;;;;;25.60;84.55;101083.22;143729;719;45923;-82
2023/12/07 09:07:59;;;;;;;16.00;11.32;;;;;;;26.93;76.68;101080.66;143730;982;46004;-82
2023/12/07 09:10:26;;;;;;;18.40;10.32;;;;;;;28.85;67.63;101079.62;143724;918;47026;-82
2023/12/07 09:12:53;;;;;;;20.83;11.27;;;;;;;30.29;60.03;101082.34;143729;582;46006;-82
2023/12/07 09:15:21;;;;;;;15.85;9.55;;;;;;;30.80;56.56;101066.09;143727;631;46004;-82
2023/12/07 09:17:51;;;;;;;20.05;9.90;;;;;;;30.05;56.93;101067.81;143731;588;46004;-82
2023/12/07 09:20:17;;;;;;;16.45;11.55;;;;;;;28.72;57.82;101075.75;143727;597;46012;-82
2023/12/07 09:22:45;;;;;;;22.58;13.70;;;;;;;27.67;60.22;101081.88;143723;569;49010;-82
2023/12/07 09:25:12;;;;;;;18.33;13.15;;;;;;;26.29;64.01;101077.50;143728;599;47002;-81
2023/12/07 09:27:40;;;;;;;19.40;14.40;;;;;;;25.69;67.76;101070.50;143728;660;48004;-82
2023/12/07 09:30:10;;;;;;;20.02;13.00;;;;;;;24.76;69.11;101074.06;143727;576;47010;-83
2023/12/07 09:32:38;;;;;;;19.85;13.82;;;;;;;24.10;73.10;101068.66;143728;573;46006;-83
2023/12/07 09:35:23;;;;;;;26.98;15.35;;;;;;;23.59;76.67;101072.38;143727;666;47002;-84
2023/12/07 09:37:53;;;;;;;23.23;14.25;;;;;;;22.97;78.36;101065.03;143733;602;45012;-83
2023/12/07 09:40:25;;;;;;;20.85;14.70;;;;;;;22.62;83.40;101063.06;143726;632;47010;-83
2023/12/07 09:42:52;;;;;;;25.88;16.00;;;;;;;22.54;84.61;101057.06;143728;575;46006;-83
2023/12/07 09:45:19;;;;;;;19.58;13.23;;;;;;;23.12;82.05;101055.97;143729;590;46008;-82
2023/12/07 09:47:49;;;;;;;27.45;16.80;;;;;;;23.19;81.35;101055.72;143733;577;45012;-82
2023/12/07 09:50:23;;;;;;;22.77;15.90;;;;;;;23.54;79.91;101050.44;143731;584;45925;-85
2023/12/07 09:52:50;;;;;;;;;;;;;;;23.93;78.26;101049.78;143734;976;46013;-82
2023/12/07 09:55:18;;;;;;;22.20;13.45;;;;;;;24.57;77.59;101043.69;143728;694;48010;-83
2023/12/07 09:57:46;;;;;;;25.95;14.55;;;;;;;24.58;77.75;101046.13;143698;580;58002;-83
2023/12/07 10:00:17;;;;;;;21.37;15.40;;;;;;;23.87;79.93;101045.41;143723;725;47011;-85
2023/12/07 10:02:46;;;;;;;23.17;15.00;;;;;;;23.39;79.82;101045.81;143731;577;45933;-83
2023/12/07 10:05:16;;;;;;;23.00;15.50;;;;;;;22.91;81.53;101043.41;143731;595;45921;-83
2023/12/07 10:07:50;;;;;;;23.92;15.10;;;;;;;22.35;81.68;101031.25;143726;586;47006;-83
2023/12/07 10:10:18;;;;;;;20.77;13.32;;;;;;;21.94;82.49;101021.81;143731;721;45924;-82
2023/12/07 10:12:59;;;;;;;22.80;14.73;;;;;;;21.91;86.25;101029.75;143727;690;48006;-84
2023/12/07 10:15:28;;;;;;;23.05;14.80;;;;;;;21.85;86.38;101026.19;143730;663;46002;-83
2023/12/07 10:17:59;;;;;;;18.40;14.85;;;;;;;22.53;84.89;101027.19;143731;587;46007;-84
2023/12/07 10:20:28;;;;;;;21.48;15.27;;;;;;;23.02;81.88;101023.94;143729;575;47012;-82
2023/12/07 10:23:07;;;;;;;26.00;15.82;;;;;;;22.79;83.56;101019.00;143729;752;46019;-82
2023/12/07 10:25:38;;;;;;;22.30;14.80;;;;;;;22.02;85.83;101011.47;143720;591;47008;-82
2023/12/07 10:28:07;;;;;;;20.48;14.60;;;;;;;21.69;88.46;101010.81;143732;583;47006;-82
2023/12/07 10:30:34;;;;;;;18.80;14.55;;;;;;;21.63;88.30;101004.47;143726;573;47010;-82
2023/12/07 10:33:04;;;;;;;19.17;14.38;;;;;;;21.58;90.35;101002.50;143730;588;46004;-82
2023/12/07 10:35:31;;;;;;;19.62;12.48;;;;;;;21.95;88.94;100998.84;143731;599;45921;-82
2023/12/07 10:37:58;;;;;;;15.55;11.77;;;;;;;22.09;87.79;100996.44;143732;614;45013;-82
2023/12/07 10:40:24;;;;;;;21.52;12.50;;;;;;;22.33;88.46;100993.19;143731;588;45924;-83
2023/12/07 10:42:56;;;;;;;15.93;10.77;;;;;;;22.89;85.80;100991.62;143722;603;48010;-84
2023/12/07 10:45:26;;;;;;;15.30;9.20;;;;;;;24.11;81.15;100979.75;143729;583;45921;-82
2023/12/07 10:47:57;;;;;;;15.73;9.18;;;;;;;24.87;77.63;100981.41;143728;605;47002;-83
2023/12/07 10:50:27;;;;;;;10.98;8.07;;;;;;;24.67;74.64;100973.03;143722;681;47012;-83
2023/12/07 10:52:57;;;;;;;15.02;10.63;;;;;;;24.37;77.11;100965.84;143728;574;47004;-83
2023/12/07 10:55:30;;;;;;;16.65;8.55;;;;;;;24.47;74.56;100956.72;143727;621;47008;-83
2023/12/07 10:57:59;;;;;;;7.80;5.90;;;;;;;24.92;73.09;100953.88;143725;577;47006;-83
2023/12/07 11:00:30;;;;;;;5.70;3.33;;;;;;;25.79;66.52;100948.50;143727;578;46012;-83
2023/12/07 11:02:58;;;;;;;9.55;5.37;;;;;;;25.88;68.14;100944.78;143731;600;45933;-84
2023/12/07 11:05:25;;;;;;;7.05;4.45;;;;;;;26.47;65.65;100943.62;143729;623;46008;-83
2023/12/07 11:08:07;;;;;;;6.75;4.20;;;;;;;27.28;62.87;100942.47;143732;602;47003;-82
2023/12/07 11:11:10;;;;;;;5.18;3.75;;;;;;;27.85;59.89;100944.06;143731;635;45924;-83
2023/12/07 11:13:37;;;;;;;8.00;4.78;;;;;;;27.62;59.09;100941.25;143727;620;47004;-83
2023/12/07 11:16:05;;;;;;;8.38;4.60;;;;;;;26.38;61.02;100950.97;143727;573;46009;-82
2023/12/07 11:18:32;;;;;;;5.55;4.03;;;;;;;25.55;62.40;100946.59;143733;616;46004;-83
2023/12/07 11:21:00;;;;;;;6.82;4.22;;;;;;;24.86;60.40;100941.28;143724;575;47012;-83
2023/12/07 11:23:28;;;;;;;7.87;3.80;;;;;;;24.57;62.88;100942.91;143724;577;47011;-83
2023/12/07 11:25:56;;;;;;;11.07;3.78;;;;;;;24.68;62.89;100949.94;143726;654;47008;-84
2023/12/07 11:28:39;;;;;;;6.57;3.25;;;;;;;24.77;60.74;100939.19;143728;583;49008;-83
2023/12/07 11:31:09;;;;;;;6.47;3.28;;;;;;;25.48;61.22;100946.16;143728;580;46924;-85
2023/12/07 11:33:39;;;;;;;7.85;3.75;;;;;;;25.71;59.29;100937.03;143728;606;46006;-82
2023/12/07 11:36:08;;;;;;;5.53;3.37;;;;;;;26.00;60.49;100935.25;143725;577;50008;-83
2023/12/07 11:38:39;;;;;;;5.62;3.70;;;;;;;26.41;59.77;100933.81;143733;590;45013;-84
2023/12/07 11:41:06;;;;;;;6.28;3.85;;;;;;;25.86;60.18;100930.50;143730;596;45924;-83
2023/12/07 11:43:43;;;;;;;7.62;4.55;;;;;;;25.00;61.58;100925.75;143731;574;45932;-84
2023/12/07 11:46:11;;;;;;;9.00;4.62;;;;;;;24.73;62.12;100927.12;143725;583;47009;-81
2023/12/07 11:48:37;;;;;;;7.43;3.90;;;;;;;24.43;63.12;100923.53;143721;577;51006;-81
2023/12/07 11:51:10;;;;;;;5.45;3.87;;;;;;;24.24;62.66;100933.56;143730;588;47010;-80
2023/12/07 11:53:38;;;;;;;12.35;5.10;;;;;;;24.33;63.15;100920.88;143731;591;45932;-81
2023/12/07 11:56:08;;;;;;;7.55;4.07;;;;;;;24.47;62.11;100919.09;143730;598;46002;-81
2023/12/07 11:58:36;;;;;;;8.20;4.93;;;;;;;24.01;64.28;100916.72;143717;573;52002;-81
2023/12/07 12:01:04;;;;;;;8.70;4.78;;;;;;;23.76;64.54;100921.22;143725;613;47012;-81
2023/12/07 12:03:35;;;;;;;9.68;5.35;;;;;;;23.50;64.98;100915.03;143727;628;47006;-80
2023/12/07 12:06:10;;;;;;;9.27;4.35;;;;;;;23.15;64.59;100912.94;143729;653;47008;-80
2023/12/07 12:08:45;;;;;;;6.57;3.87;;;;;;;23.28;65.11;100906.09;143732;577;46008;-83
2023/12/07 12:11:12;;;;;;;5.90;4.20;;;;;;;23.17;64.82;100912.69;143731;588;46010;-80
2023/12/07 12:13:42;;;;;;;6.45;3.75;;;;;;;23.23;65.49;100905.28;143726;582;47006;-79
2023/12/07 12:16:09;;;;;;;8.65;3.37;;;;;;;23.17;62.57;100913.47;143722;631;47009;-80
2023/12/07 12:18:40;;;;;;;4.75;2.20;;;;;;;23.05;62.12;100915.72;143734;617;45012;-82
2023/12/07 12:21:10;;;;;;;9.82;2.80;;;;;;;22.77;62.89;100906.19;143726;567;47006;-79
2023/12/07 12:23:37;;;;;;;6.45;2.53;;;;;;;22.72;64.78;100907.03;143726;573;47004;-80
2023/12/07 12:26:05;;;;;;;8.70;6.47;;;;;;;22.86;64.31;100908.09;143728;660;46002;-79
2023/12/07 12:28:32;;;;;;;10.18;3.50;;;;;;;22.83;64.21;100905.09;143733;576;46004;-79
2023/12/07 12:31:00;;;;;;;11.45;3.20;;;;;;;22.58;63.44;100908.69;143731;586;45924;-80
2023/12/07 12:33:27;;;;;;;8.05;3.83;;;;;;;22.46;62.83;100903.50;143726;578;47006;-80
2023/12/07 12:36:10;;;;;;;7.45;3.45;;;;;;;22.19;64.02;100907.28;143730;580;46002;-82
2023/12/07 12:38:39;;;;;;;6.97;2.72;;;;;;;22.02;64.51;100902.06;143733;573;45012;-78
2023/12/07 12:41:08;;;;;;;11.50;9.65;;;;;;;21.87;73.09;100900.97;143728;584;46010;-79
2023/12/07 12:43:38;;;;;;;14.77;8.77;;;;;;;21.79;68.73;100907.78;143723;572;48010;-80
2023/12/07 12:46:05;;;;;;;8.20;3.60;;;;;;;21.59;66.12;100894.00;143727;567;47009;-80
2023/12/07 12:48:32;;;;;;;7.05;4.82;;;;;;;21.53;67.08;100911.47;143725;619;47008;-80
2023/12/07 12:51:07;;;;;;;11.55;7.32;;;;;;;21.33;68.33;100905.69;143729;711;47006;-80
2023/12/07 12:53:34;;;;;;;13.52;9.07;;;;;;;21.19;69.44;100913.53;143716;661;55006;-81
2023/12/07 12:56:01;;;;;;;6.82;2.95;;;;;;;20.90;67.63;100907.63;143726;650;48002;-80
2023/12/07 12:58:28;;;;;;;4.65;3.00;;;;;;;20.96;69.39;100908.47;143726;597;47008;-81
2023/12/07 13:00:56;;;;;;;7.97;3.97;;;;;;;20.99;70.87;100905.22;143731;573;45924;-81
2023/12/07 13:03:23;;;;;;;7.70;4.50;;;;;;;20.92;70.15;100904.63;143723;574;48004;-80
2023/12/07 13:05:50;;;;;;;9.35;3.50;;;;;;;20.98;72.05;100909.88;143731;582;45922;-82
2023/12/07 13:08:17;;;;;;;17.02;11.40;;;;;;;21.04;73.96;100906.06;143721;582;48002;-79
2023/12/07 13:10:44;;;;;;;9.13;4.93;;;;;;;21.02;71.41;100910.16;143731;585;45923;-80
2023/12/07 13:13:14;;;;;;;6.37;4.18;;;;;;;21.04;70.65;100911.53;143720;586;47010;-79